Russian River, California
Current Conditions -  °F | °C
As of 7:10 AM on Saturday 25 Oct 2014 (Local Time) from KSTS Reporting Station
Overcast Overcast  
Wind Chill: 57°   Ceiling: 1500
Heat Index: 57°   Visibility: 10mi
Dew Point: 55°   Wind: 6mph
Humidity: 94%   Direction: 120°ESE
Pressure: 29.91"   Gusts: NA
Location:  38.4654°N, 123.012°W
Report Text: KSTS 251410Z 12005KT 10SM BKN015 OVC041 14/13 A2991 RMK AO2
Loading
Personal Weather Stations






























Interactive Weather Map
Tropical Storm Tracking
New forecast layout! Learn more

10-Day Weather Forecast

Advertisements
Track Severe Weather on mobile